createdAt,value
2019-05-18T00:01:33.028Z,6.20
2019-05-18T00:07:34.770Z,6.00
2019-05-18T00:13:36.366Z,6.20
2019-05-18T00:19:37.861Z,6.30
2019-05-18T00:25:40.355Z,6.10
2019-05-18T00:31:42.638Z,6.00
2019-05-18T00:37:44.183Z,6.10
2019-05-18T00:43:45.620Z,6.00
2019-05-18T00:49:47.189Z,5.90
2019-05-18T00:55:49.884Z,5.80
2019-05-18T01:01:51.347Z,5.80
2019-05-18T01:07:52.850Z,5.70
2019-05-18T01:13:54.309Z,5.60
2019-05-18T01:19:55.928Z,5.60
2019-05-18T01:25:57.429Z,5.60
2019-05-18T01:31:59.075Z,5.50
2019-05-18T01:38:00.660Z,5.50
2019-05-18T01:44:02.324Z,5.40
2019-05-18T01:50:04.320Z,5.40
2019-05-18T01:56:06.001Z,5.40
2019-05-18T02:02:07.702Z,5.30
2019-05-18T02:08:09.163Z,5.10
2019-05-18T02:14:10.795Z,5.10
2019-05-18T02:20:12.712Z,5.10
2019-05-18T02:26:14.935Z,5.10
2019-05-18T02:32:16.570Z,5.00
2019-05-18T02:38:19.113Z,5.00
2019-05-18T02:44:20.647Z,4.90
2019-05-18T02:50:22.207Z,4.80
2019-05-18T02:56:23.755Z,4.70
2019-05-18T03:02:25.174Z,4.40
2019-05-18T03:08:26.825Z,4.30
2019-05-18T03:14:28.599Z,4.30
2019-05-18T03:20:30.221Z,4.50
2019-05-18T03:26:31.701Z,4.60
2019-05-18T03:32:33.254Z,4.60
2019-05-18T03:38:34.695Z,4.50
2019-05-18T03:44:37.393Z,4.70
2019-05-18T03:50:38.962Z,4.60
2019-05-18T03:56:40.493Z,4.70
2019-05-18T04:02:41.979Z,4.60
2019-05-18T04:08:43.464Z,4.80
2019-05-18T04:14:44.921Z,4.90
2019-05-18T04:20:46.393Z,4.90
2019-05-18T04:26:47.868Z,5.10
2019-05-18T04:32:49.337Z,5.20
2019-05-18T04:38:50.765Z,5.30
2019-05-18T04:44:52.258Z,5.80
2019-05-18T04:50:53.703Z,6.40
2019-05-18T04:56:55.268Z,7.00
2019-05-18T05:02:56.724Z,7.60
2019-05-18T05:08:58.173Z,7.80
2019-05-18T05:14:59.726Z,7.70
2019-05-18T05:21:01.181Z,7.90
2019-05-18T05:27:02.790Z,8.40
2019-05-18T05:33:04.238Z,8.60
2019-05-18T05:39:05.863Z,8.80
2019-05-18T05:45:07.890Z,9.00
2019-05-18T05:51:09.416Z,9.20
2019-05-18T05:57:10.861Z,9.80
2019-05-18T06:03:12.306Z,10.90
2019-05-18T06:09:13.774Z,10.80
2019-05-18T06:15:16.627Z,11.20
2019-05-18T06:21:18.236Z,11.80
2019-05-18T06:27:19.831Z,11.80
2019-05-18T06:33:21.298Z,11.80
2019-05-18T06:39:22.773Z,11.70
2019-05-18T06:45:24.339Z,11.60
2019-05-18T06:51:25.826Z,11.60
2019-05-18T06:57:28.227Z,11.80
2019-05-18T07:03:29.844Z,12.10
2019-05-18T07:09:31.460Z,12.20
2019-05-18T07:15:33.030Z,12.30
2019-05-18T07:21:34.853Z,12.60
2019-05-18T07:27:36.584Z,13.10
2019-05-18T07:33:38.075Z,13.50
2019-05-18T07:39:39.552Z,13.90
2019-05-18T07:45:41.143Z,14.30
2019-05-18T07:51:42.588Z,14.70
2019-05-18T07:57:44.148Z,15.20
2019-05-18T08:03:45.623Z,15.60
2019-05-18T08:09:51.940Z,15.90
2019-05-18T08:15:55.446Z,16.30
2019-05-18T08:21:58.192Z,16.60
2019-05-18T08:27:59.754Z,16.90
2019-05-18T08:34:01.290Z,17.10
2019-05-18T08:40:05.171Z,17.50
2019-05-18T08:46:07.718Z,17.80
2019-05-18T08:52:11.242Z,18.10
2019-05-18T08:58:14.737Z,18.70
2019-05-18T09:04:16.363Z,19.00
2019-05-18T09:10:18.128Z,19.10
2019-05-18T09:16:19.624Z,19.30
2019-05-18T09:22:23.134Z,18.80
2019-05-18T09:28:24.367Z,18.60
2019-05-18T09:34:25.956Z,18.90
2019-05-18T09:40:44.484Z,19.40
2019-05-18T09:46:45.911Z,19.70
2019-05-18T09:59:03.298Z,19.90
2019-05-18T10:05:07.239Z,20.30
2019-05-18T10:11:08.963Z,20.30
2019-05-18T10:17:10.518Z,20.50
2019-05-18T10:23:13.866Z,20.50
2019-05-18T10:29:15.496Z,20.70
2019-05-18T10:35:17.063Z,21.00
2019-05-18T10:41:18.603Z,21.20
2019-05-18T10:47:20.067Z,21.50
2019-05-18T10:53:28.804Z,21.60
2019-05-18T10:59:24.868Z,22.00
2019-05-18T11:05:26.479Z,22.30
2019-05-18T11:11:28.079Z,21.50
2019-05-18T11:17:29.728Z,22.20
2019-05-18T11:23:42.868Z,21.90
2019-05-18T11:29:34.597Z,21.90
2019-05-18T11:35:36.211Z,22.00
2019-05-18T11:41:37.712Z,22.60
2019-05-18T11:47:39.387Z,23.10
2019-05-18T11:53:40.958Z,23.20
2019-05-18T11:59:42.547Z,23.90
2019-05-18T12:05:44.015Z,23.80
2019-05-18T12:11:45.571Z,24.50
2019-05-18T12:17:47.080Z,24.10
2019-05-18T12:23:48.618Z,23.70
2019-05-18T12:29:50.030Z,23.70
2019-05-18T12:35:51.627Z,23.50
2019-05-18T12:41:53.114Z,23.60
2019-05-18T12:47:54.557Z,23.80
2019-05-18T12:53:56.264Z,24.30
2019-05-18T12:59:57.765Z,24.30
2019-05-18T13:05:59.199Z,24.20
2019-05-18T13:12:02.824Z,24.20
2019-05-18T13:18:05.116Z,24.30
2019-05-18T13:24:06.616Z,24.50
2019-05-18T13:30:10.191Z,24.30
2019-05-18T13:36:14.245Z,24.50
2019-05-18T13:42:16.441Z,24.10
2019-05-18T13:48:19.766Z,24.60
2019-05-18T13:54:22.392Z,24.90
2019-05-18T14:00:24.437Z,24.70
2019-05-18T14:06:26.023Z,24.90
2019-05-18T14:12:27.497Z,24.80
2019-05-18T14:18:28.953Z,24.80
2019-05-18T14:24:30.580Z,24.40
2019-05-18T14:30:32.170Z,24.60
2019-05-18T14:36:33.637Z,24.60
2019-05-18T14:42:35.288Z,24.70
2019-05-18T14:48:36.942Z,24.80
2019-05-18T14:54:38.527Z,24.10
2019-05-18T15:00:40.085Z,24.20
2019-05-18T15:06:41.570Z,24.50
2019-05-18T15:12:43.042Z,25.20
2019-05-18T15:18:44.492Z,25.50
2019-05-18T15:24:46.013Z,25.50
2019-05-18T15:30:47.525Z,26.00
2019-05-18T15:36:49.088Z,26.10
2019-05-18T15:42:50.501Z,26.60
2019-05-18T15:48:52.119Z,26.70
2019-05-18T15:54:53.761Z,27.30
2019-05-18T16:00:55.190Z,27.10
2019-05-18T16:06:56.770Z,26.90
2019-05-18T16:12:58.396Z,27.20
2019-05-18T16:18:59.829Z,27.50
2019-05-18T16:25:01.513Z,27.10
2019-05-18T16:31:03.005Z,27.80
2019-05-18T16:37:04.491Z,28.10
2019-05-18T16:43:06.029Z,28.10
2019-05-18T16:49:07.668Z,28.50
2019-05-18T16:55:09.429Z,28.20
2019-05-18T17:01:10.928Z,27.90
2019-05-18T17:07:12.669Z,27.30
2019-05-18T17:13:14.284Z,28.60
2019-05-18T17:19:16.512Z,29.00
2019-05-18T17:25:27.566Z,29.60
2019-05-18T17:31:31.474Z,29.00
2019-05-18T17:37:33.080Z,28.70
2019-05-18T17:43:34.794Z,29.60
2019-05-18T17:49:36.265Z,28.70
2019-05-18T17:55:37.710Z,28.10
2019-05-18T18:01:39.333Z,29.50
2019-05-18T18:07:40.833Z,28.60
2019-05-18T18:13:42.296Z,27.30
2019-05-18T18:19:43.796Z,25.20
2019-05-18T18:25:45.445Z,23.00
2019-05-18T18:31:46.988Z,21.70
2019-05-18T18:37:48.498Z,20.80
2019-05-18T18:43:50.193Z,20.30
2019-05-18T18:49:51.782Z,19.40
2019-05-18T18:55:54.224Z,18.60
2019-05-18T19:01:56.040Z,18.00
2019-05-18T19:07:57.597Z,17.10
2019-05-18T19:13:59.073Z,16.30
2019-05-18T19:20:00.571Z,15.90
2019-05-18T19:26:02.147Z,15.40
2019-05-18T19:32:03.595Z,14.90
2019-05-18T19:38:05.229Z,14.50
2019-05-18T19:44:06.691Z,14.30
2019-05-18T19:50:08.556Z,14.10
2019-05-18T19:56:10.120Z,14.00
2019-05-18T20:02:11.673Z,13.70
2019-05-18T20:08:13.151Z,13.30
2019-05-18T20:14:14.684Z,13.10
2019-05-18T20:20:17.311Z,13.00
2019-05-18T20:26:19.306Z,13.00
2019-05-18T20:32:21.153Z,13.00
2019-05-18T20:38:22.775Z,13.10
2019-05-18T20:44:24.547Z,13.00
2019-05-18T20:50:26.031Z,12.80
2019-05-18T20:56:27.573Z,12.30
2019-05-18T21:02:29.422Z,12.10
2019-05-18T21:08:35.576Z,12.20
2019-05-18T21:14:37.554Z,12.20
2019-05-18T21:20:39.212Z,12.00
2019-05-18T21:26:40.715Z,11.80
2019-05-18T21:32:42.173Z,11.70
2019-05-18T21:38:43.709Z,11.50
2019-05-18T21:44:51.577Z,11.30
2019-05-18T21:50:53.179Z,11.00
2019-05-18T21:56:54.783Z,10.60
2019-05-18T22:02:56.384Z,10.60
2019-05-18T22:08:57.967Z,10.70
2019-05-18T22:14:59.481Z,10.60
2019-05-18T22:21:01.144Z,10.60
2019-05-18T22:27:09.345Z,10.50
2019-05-18T22:33:11.069Z,10.20
2019-05-18T22:39:17.757Z,10.20
2019-05-18T22:45:20.808Z,9.80
2019-05-18T22:51:22.279Z,9.70
2019-05-18T22:57:27.437Z,9.80
2019-05-18T23:03:31.831Z,9.80
2019-05-18T23:09:33.670Z,9.70
2019-05-18T23:15:35.355Z,9.70
2019-05-18T23:21:36.919Z,9.60
2019-05-18T23:27:38.410Z,9.50
2019-05-18T23:33:39.963Z,9.30
2019-05-18T23:39:42.672Z,9.20
2019-05-18T23:45:44.228Z,9.20
2019-05-18T23:51:45.750Z,9.30
2019-05-18T23:57:47.237Z,9.30
